createdAt,value
2023-05-01T00:00:59.674Z,100831.81
2023-05-01T00:06:16.843Z,100827.94
2023-05-01T00:08:53.565Z,100835.09
2023-05-01T00:11:28.578Z,100828.38
2023-05-01T00:14:09.753Z,100827.94
2023-05-01T00:16:40.603Z,100827.94
2023-05-01T00:19:13.348Z,100821.28
2023-05-01T00:21:48.219Z,100819.53
2023-05-01T00:24:27.576Z,100794.66
2023-05-01T00:27:05.460Z,100811.00
2023-05-01T00:29:44.921Z,100769.84
2023-05-01T00:32:15.993Z,100801.28
2023-05-01T00:34:52.111Z,100807.00
2023-05-01T00:37:25.568Z,100801.06
2023-05-01T00:40:00.753Z,100801.59
2023-05-01T00:42:42.562Z,100781.53
2023-05-01T00:45:33.305Z,100806.78
2023-05-01T00:48:12.773Z,100808.97
2023-05-01T00:50:58.056Z,100802.00
2023-05-01T00:53:40.077Z,100784.56
2023-05-01T00:56:18.897Z,100823.22
2023-05-01T00:59:08.816Z,100824.19
2023-05-01T01:01:46.753Z,100822.56
2023-05-01T01:04:24.831Z,100823.97
2023-05-01T01:07:12.850Z,100806.22
2023-05-01T01:10:09.679Z,100830.38
2023-05-01T01:13:09.609Z,100827.38
2023-05-01T01:15:53.217Z,100833.94
2023-05-01T01:18:37.679Z,100832.50
2023-05-01T01:21:17.325Z,100845.63
2023-05-01T01:24:35.188Z,100838.53
2023-05-01T01:27:42.429Z,100820.59
2023-05-01T01:34:02.242Z,100832.59
2023-05-01T01:36:49.327Z,100835.53
2023-05-01T01:39:37.020Z,100836.31
2023-05-01T01:42:21.866Z,100831.75
2023-05-01T01:44:58.286Z,100834.38
2023-05-01T01:47:51.219Z,100831.38
2023-05-01T01:50:33.013Z,100824.44
2023-05-01T01:53:12.649Z,100830.03
2023-05-01T01:55:50.888Z,100830.03
2023-05-01T01:58:29.040Z,100827.16
2023-05-01T02:01:14.883Z,100825.91
2023-05-01T02:03:52.264Z,100830.31
2023-05-01T02:06:42.723Z,100834.72
2023-05-01T02:09:20.329Z,100835.13
2023-05-01T02:12:05.271Z,100832.75
2023-05-01T02:14:43.571Z,100823.50
2023-05-01T02:17:18.781Z,100835.09
2023-05-01T02:19:58.936Z,100832.44
2023-05-01T02:22:35.303Z,100834.09
2023-05-01T02:25:16.957Z,100825.00
2023-05-01T02:28:01.914Z,100835.81
2023-05-01T02:30:37.627Z,100832.59
2023-05-01T02:33:15.873Z,100829.13
2023-05-01T02:35:54.405Z,100832.06
2023-05-01T02:38:29.025Z,100829.09
2023-05-01T02:41:05.243Z,100818.38
2023-05-01T02:43:44.412Z,100833.09
2023-05-01T02:46:19.735Z,100840.13
2023-05-01T02:49:08.907Z,100850.91
2023-05-01T02:51:45.404Z,100826.25
2023-05-01T02:54:29.532Z,100849.16
2023-05-01T02:57:11.833Z,100857.78
2023-05-01T02:59:58.279Z,100865.66
2023-05-01T03:02:31.205Z,100858.94
2023-05-01T03:05:19.060Z,100864.31
2023-05-01T03:07:57.536Z,100864.91
2023-05-01T03:10:35.608Z,100868.72
2023-05-01T03:13:08.798Z,100864.66
2023-05-01T03:15:44.542Z,100857.19
2023-05-01T03:18:26.237Z,100865.22
2023-05-01T03:21:05.621Z,100873.31
2023-05-01T03:23:41.369Z,100866.34
2023-05-01T03:26:14.455Z,100870.63
2023-05-01T03:28:58.729Z,100833.63
2023-05-01T03:31:33.421Z,100882.50
2023-05-01T03:34:11.374Z,100881.94
2023-05-01T03:36:51.361Z,100873.88
2023-05-01T03:39:46.719Z,100880.88
2023-05-01T03:42:46.371Z,100878.19
2023-05-01T03:45:30.595Z,100877.63
2023-05-01T03:48:14.563Z,100882.50
2023-05-01T03:50:54.567Z,100868.25
2023-05-01T03:53:40.188Z,100883.00
2023-05-01T03:56:15.375Z,100876.84
2023-05-01T03:59:01.556Z,100872.00
2023-05-01T04:01:44.987Z,100875.75
2023-05-01T04:04:21.769Z,100880.06
2023-05-01T04:07:02.129Z,100864.75
2023-05-01T04:09:33.227Z,100882.50
2023-05-01T04:12:15.909Z,100886.00
2023-05-01T04:14:56.867Z,100886.28
2023-05-01T04:17:40.403Z,100887.09
2023-05-01T04:20:25.704Z,100881.72
2023-05-01T04:23:07.831Z,100861.59
2023-05-01T04:25:44.148Z,100862.38
2023-05-01T04:28:26.012Z,100891.63
2023-05-01T04:31:07.547Z,100893.19
2023-05-01T04:33:42.855Z,100900.22
2023-05-01T04:36:17.405Z,100897.28
2023-05-01T04:39:01.276Z,100901.84
2023-05-01T04:41:37.136Z,100865.59
2023-05-01T04:44:11.001Z,100904.25
2023-05-01T04:46:47.480Z,100906.34
2023-05-01T04:49:27.381Z,100899.06
2023-05-01T04:52:04.521Z,100910.59
2023-05-01T04:54:59.349Z,100870.81
2023-05-01T04:57:35.828Z,100908.66
2023-05-01T05:00:15.727Z,100918.34
2023-05-01T05:03:03.032Z,100915.56
2023-05-01T05:05:47.395Z,100914.97
2023-05-01T05:08:24.441Z,100898.31
2023-05-01T05:11:21.855Z,100884.31
2023-05-01T05:14:04.450Z,100913.31
2023-05-01T05:16:44.053Z,100921.88
2023-05-01T05:19:25.431Z,100928.53
2023-05-01T05:21:59.867Z,100919.59
2023-05-01T05:24:33.605Z,100916.31
2023-05-01T05:27:17.762Z,100922.00
2023-05-01T05:29:56.424Z,100924.63
2023-05-01T05:32:37.969Z,100933.47
2023-05-01T05:35:19.264Z,100925.34
2023-05-01T05:37:51.053Z,100916.19
2023-05-01T05:40:33.015Z,100926.84
2023-05-01T05:43:09.021Z,100922.50
2023-05-01T05:45:54.941Z,100935.16
2023-05-01T05:48:36.567Z,100922.50
2023-05-01T05:51:21.679Z,100931.97
2023-05-01T05:54:02.387Z,100918.25
2023-05-01T05:56:43.218Z,100936.00
2023-05-01T05:59:24.956Z,100931.38
2023-05-01T06:01:59.382Z,100940.09
2023-05-01T06:04:32.484Z,100948.91
2023-05-01T06:07:17.893Z,100946.34
2023-05-01T06:09:53.525Z,100937.72
2023-05-01T06:12:32.097Z,100917.53
2023-05-01T06:15:17.441Z,100938.88
2023-05-01T06:18:01.489Z,100943.34
2023-05-01T06:20:33.851Z,100943.16
2023-05-01T06:23:16.589Z,100947.09
2023-05-01T06:26:19.713Z,100949.81
2023-05-01T06:28:54.541Z,100950.19
2023-05-01T06:31:37.952Z,100954.41
2023-05-01T06:34:10.951Z,100953.75
2023-05-01T06:36:52.345Z,100954.13
2023-05-01T06:39:31.533Z,100931.34
2023-05-01T06:42:18.391Z,100947.91
2023-05-01T06:44:54.744Z,100952.06
2023-05-01T06:47:33.446Z,100957.63
2023-05-01T06:50:11.618Z,100960.78
2023-05-01T06:52:52.285Z,100953.13
2023-05-01T06:55:35.997Z,100960.81
2023-05-01T06:58:16.575Z,100962.03
2023-05-01T07:01:00.373Z,100961.66
2023-05-01T07:03:39.811Z,100958.78
2023-05-01T07:06:22.433Z,100963.91
2023-05-01T07:08:55.269Z,100967.56
2023-05-01T07:11:36.427Z,100963.22
2023-05-01T07:17:03.232Z,100965.91
2023-05-01T07:19:38.254Z,100973.41
2023-05-01T07:22:25.777Z,100968.34
2023-05-01T07:25:09.339Z,100933.75
2023-05-01T07:27:44.583Z,100976.88
2023-05-01T07:30:18.474Z,100975.50
2023-05-01T07:33:03.421Z,100971.09
2023-05-01T07:35:39.154Z,100975.50
2023-05-01T07:38:36.506Z,100974.00
2023-05-01T07:41:11.300Z,100968.19
2023-05-01T07:43:51.706Z,100969.69
2023-05-01T07:46:26.333Z,100974.50
2023-05-01T07:49:12.444Z,100979.72
2023-05-01T07:51:47.449Z,100977.72
2023-05-01T07:54:23.288Z,100931.06
2023-05-01T07:56:58.467Z,100965.25
2023-05-01T07:59:44.228Z,100957.22
2023-05-01T08:02:23.941Z,100977.66
2023-05-01T08:05:02.336Z,100974.84
2023-05-01T08:07:44.136Z,100974.66
2023-05-01T08:10:17.138Z,100980.75
2023-05-01T08:12:58.256Z,100985.47
2023-05-01T08:15:35.730Z,100986.06
2023-05-01T08:18:08.538Z,100981.13
2023-05-01T08:20:39.571Z,100974.97
2023-05-01T08:23:17.510Z,100979.66
2023-05-01T08:25:59.473Z,100961.25
2023-05-01T08:28:37.928Z,100983.50
2023-05-01T08:31:13.909Z,100984.03
2023-05-01T08:34:04.093Z,100983.78
2023-05-01T08:36:49.070Z,100991.34
2023-05-01T08:39:40.037Z,100989.31
2023-05-01T08:42:22.268Z,100985.56
2023-05-01T08:45:11.414Z,100988.00
2023-05-01T08:48:02.564Z,100986.47
2023-05-01T08:50:44.382Z,100966.59
2023-05-01T08:53:18.980Z,100985.41
2023-05-01T08:55:55.150Z,100991.38
2023-05-01T08:58:33.333Z,100980.66
2023-05-01T09:01:15.721Z,100972.81
2023-05-01T09:03:55.949Z,100974.16
2023-05-01T09:06:32.936Z,100964.25
2023-05-01T09:09:09.604Z,100977.22
2023-05-01T09:11:52.697Z,100976.91
2023-05-01T09:14:26.135Z,100958.78
2023-05-01T09:17:05.544Z,100947.38
2023-05-01T09:19:47.158Z,100964.72
2023-05-01T09:22:18.996Z,100963.09
2023-05-01T09:25:06.308Z,100967.59
2023-05-01T09:27:50.899Z,100961.53
2023-05-01T09:30:43.502Z,100950.44
2023-05-01T09:33:20.361Z,100958.13
2023-05-01T09:36:05.217Z,100944.50
2023-05-01T09:38:51.150Z,100935.69
2023-05-01T09:41:31.636Z,100940.84
2023-05-01T09:44:21.023Z,100952.69
2023-05-01T09:46:57.799Z,100940.19
2023-05-01T09:49:51.311Z,100954.38
2023-05-01T09:52:42.002Z,100948.44
2023-05-01T09:55:27.838Z,100936.09
2023-05-01T09:58:01.163Z,100944.97
2023-05-01T10:00:56.644Z,100948.28
2023-05-01T10:03:32.399Z,100940.34
2023-05-01T10:06:19.749Z,100942.88
2023-05-01T10:08:59.566Z,100912.06
2023-05-01T10:11:34.608Z,100915.50
2023-05-01T10:14:18.860Z,100932.47
2023-05-01T10:17:00.488Z,100902.53
2023-05-01T10:19:38.200Z,100935.44
2023-05-01T10:22:13.328Z,100934.03
2023-05-01T10:24:55.368Z,100927.50
2023-05-01T10:27:30.851Z,100926.66
2023-05-01T10:30:15.430Z,100923.69
2023-05-01T10:32:55.474Z,100918.69
2023-05-01T10:35:40.516Z,100919.66
2023-05-01T10:38:29.916Z,100919.09
2023-05-01T10:41:08.929Z,100900.31
2023-05-01T10:44:05.541Z,100909.75
2023-05-01T10:46:44.786Z,100912.03
2023-05-01T10:49:24.366Z,100914.13
2023-05-01T10:52:04.669Z,100899.13
2023-05-01T10:54:41.411Z,100892.03
2023-05-01T10:57:53.455Z,100893.19
2023-05-01T11:00:29.831Z,100884.41
2023-05-01T11:03:42.949Z,100879.78
2023-05-01T11:06:22.942Z,100868.59
2023-05-01T11:08:58.756Z,100881.34
2023-05-01T11:11:53.249Z,100872.00
2023-05-01T11:15:15.805Z,100870.97
2023-05-01T11:18:01.132Z,100852.88
2023-05-01T11:21:00.158Z,100868.13
2023-05-01T11:23:38.561Z,100867.69
2023-05-01T11:26:19.494Z,100870.72
2023-05-01T11:28:49.834Z,100866.34
2023-05-01T11:31:25.016Z,100863.19
2023-05-01T11:33:56.416Z,100847.56
2023-05-01T11:36:30.474Z,100869.44
2023-05-01T11:39:21.255Z,100854.63
2023-05-01T11:42:15.289Z,100862.53
2023-05-01T11:45:12.966Z,100853.09
2023-05-01T11:48:02.870Z,100850.66
2023-05-01T11:50:49.538Z,100855.59
2023-05-01T11:53:39.285Z,100845.16
2023-05-01T11:56:27.642Z,100835.75
2023-05-01T11:59:06.944Z,100844.19
2023-05-01T12:01:47.598Z,100843.47
2023-05-01T12:04:39.840Z,100831.69
2023-05-01T12:07:33.013Z,100834.97
2023-05-01T12:10:22.107Z,100829.13
2023-05-01T12:13:02.252Z,100793.94
2023-05-01T12:15:45.621Z,100822.63
2023-05-01T12:18:19.739Z,100810.06
2023-05-01T12:21:00.101Z,100813.50
2023-05-01T12:23:54.474Z,100816.59
2023-05-01T12:26:33.134Z,100819.78
2023-05-01T12:29:16.285Z,100811.16
2023-05-01T12:31:56.858Z,100811.00
2023-05-01T12:34:38.756Z,100809.69
2023-05-01T12:37:23.681Z,100788.44
2023-05-01T12:39:57.308Z,100794.56
2023-05-01T12:42:29.925Z,100789.91
2023-05-01T12:45:06.716Z,100785.06
2023-05-01T12:47:43.995Z,100776.97
2023-05-01T12:50:28.703Z,100775.66
2023-05-01T12:53:22.421Z,100783.06
2023-05-01T12:56:13.056Z,100773.31
2023-05-01T12:58:53.347Z,100778.56
2023-05-01T13:01:41.786Z,100753.13
2023-05-01T13:04:13.998Z,100763.72
2023-05-01T13:06:50.003Z,100756.84
2023-05-01T13:09:27.484Z,100749.19
2023-05-01T13:12:13.713Z,100746.81
2023-05-01T13:14:47.477Z,100704.72
2023-05-01T13:17:38.181Z,100742.22
2023-05-01T13:20:20.348Z,100746.31
2023-05-01T13:22:58.100Z,100727.00
2023-05-01T13:25:43.168Z,100737.88
2023-05-01T13:28:25.187Z,100714.25
2023-05-01T13:31:00.774Z,100728.56
2023-05-01T13:33:42.649Z,100722.28
2023-05-01T13:36:26.582Z,100709.19
2023-05-01T13:39:07.085Z,100722.88
2023-05-01T13:41:48.877Z,100722.63
2023-05-01T13:44:29.662Z,100704.91
2023-05-01T13:47:11.626Z,100710.03
2023-05-01T13:49:48.230Z,100705.31
2023-05-01T13:52:28.824Z,100688.75
2023-05-01T13:55:12.952Z,100707.38
2023-05-01T13:57:58.505Z,100708.19
2023-05-01T14:00:32.309Z,100696.03
2023-05-01T14:03:19.229Z,100701.97
2023-05-01T14:05:54.774Z,100698.84
2023-05-01T14:08:39.284Z,100699.66
2023-05-01T14:11:24.544Z,100695.84
2023-05-01T14:14:07.101Z,100689.59
2023-05-01T14:16:47.697Z,100693.97
2023-05-01T14:19:26.278Z,100689.19
2023-05-01T14:21:57.613Z,100698.28
2023-05-01T14:24:34.868Z,100679.31
2023-05-01T14:27:16.279Z,100686.66
2023-05-01T14:29:58.960Z,100691.66
2023-05-01T14:32:48.240Z,100677.84
2023-05-01T14:35:35.400Z,100656.78
2023-05-01T14:38:19.106Z,100678.03
2023-05-01T14:40:58.034Z,100674.25
2023-05-01T14:43:43.511Z,100687.66
2023-05-01T14:46:29.811Z,100682.69
2023-05-01T14:49:02.626Z,100681.00
2023-05-01T14:51:51.123Z,100677.66
2023-05-01T14:54:53.629Z,100678.34
2023-05-01T14:57:32.458Z,100665.56
2023-05-01T15:00:12.882Z,100658.81
2023-05-01T15:02:50.491Z,100667.06
2023-05-01T15:05:24.326Z,100668.16
2023-05-01T15:08:01.712Z,100664.59
2023-05-01T15:10:43.627Z,100644.00
2023-05-01T15:13:17.495Z,100653.84
2023-05-01T15:16:02.526Z,100636.19
2023-05-01T15:18:50.431Z,100653.63
2023-05-01T15:21:29.706Z,100650.03
2023-05-01T15:24:04.114Z,100647.94
2023-05-01T15:26:40.080Z,100645.19
2023-05-01T15:29:19.232Z,100645.38
2023-05-01T15:32:10.891Z,100652.06
2023-05-01T15:34:57.738Z,100644.13
2023-05-01T15:37:47.731Z,100632.22
2023-05-01T15:40:23.926Z,100632.03
2023-05-01T15:43:03.441Z,100614.16
2023-05-01T15:45:43.921Z,100633.97
2023-05-01T15:48:19.031Z,100625.28
2023-05-01T15:51:00.286Z,100630.00
2023-05-01T15:53:37.593Z,100610.63
2023-05-01T15:56:11.367Z,100634.66
2023-05-01T15:58:46.210Z,100622.09
2023-05-01T16:01:30.404Z,100624.88
2023-05-01T16:04:11.435Z,100629.72
2023-05-01T16:06:55.029Z,100633.25
2023-05-01T16:09:36.755Z,100632.88
2023-05-01T16:12:17.704Z,100632.75
2023-05-01T16:14:52.082Z,100624.81
2023-05-01T16:17:24.877Z,100592.16
2023-05-01T16:20:02.572Z,100631.31
2023-05-01T16:22:54.312Z,100627.97
2023-05-01T16:25:27.769Z,100615.94
2023-05-01T16:28:08.573Z,100624.94
2023-05-01T16:30:51.281Z,100615.81
2023-05-01T16:33:33.357Z,100594.63
2023-05-01T16:36:23.661Z,100622.97
2023-05-01T16:41:51.129Z,100620.06
2023-05-01T16:44:39.630Z,100623.97
2023-05-01T16:47:27.650Z,100631.47
2023-05-01T16:50:18.840Z,100614.03
2023-05-01T16:52:49.294Z,100637.63
2023-05-01T16:55:33.529Z,100638.84
2023-05-01T16:58:09.213Z,100608.78
2023-05-01T17:00:44.597Z,100630.03
2023-05-01T17:03:21.097Z,100636.63
2023-05-01T17:06:01.145Z,100633.34
2023-05-01T17:08:34.678Z,100622.25
2023-05-01T17:11:12.367Z,100619.72
2023-05-01T17:13:47.867Z,100608.34
2023-05-01T17:16:19.726Z,100630.22
2023-05-01T17:18:55.689Z,100634.38
2023-05-01T17:22:06.592Z,100612.03
2023-05-01T17:24:39.395Z,100603.34
2023-05-01T17:27:15.855Z,100637.28
2023-05-01T17:29:52.867Z,100646.91
2023-05-01T17:32:37.132Z,100643.94
2023-05-01T17:35:19.860Z,100643.31
2023-05-01T17:37:50.475Z,100645.28
2023-05-01T17:40:26.739Z,100644.38
2023-05-01T17:43:04.554Z,100646.41
2023-05-01T17:45:41.831Z,100649.75
2023-05-01T17:48:20.006Z,100653.03
2023-05-01T17:51:00.401Z,100626.06
2023-05-01T17:53:32.643Z,100648.59
2023-05-01T17:56:08.639Z,100651.91
2023-05-01T17:58:47.885Z,100653.19
2023-05-01T18:01:27.178Z,100641.41
2023-05-01T18:03:58.690Z,100649.25
2023-05-01T18:06:43.878Z,100661.72
2023-05-01T18:09:26.125Z,100659.91
2023-05-01T18:12:02.840Z,100669.81
2023-05-01T18:14:38.029Z,100664.78
2023-05-01T18:17:12.665Z,100668.06
2023-05-01T18:19:51.066Z,100677.31
2023-05-01T18:22:26.467Z,100672.34
2023-05-01T18:25:11.400Z,100685.72
2023-05-01T18:27:46.218Z,100681.88
2023-05-01T18:30:24.009Z,100653.22
2023-05-01T18:33:04.048Z,100666.53
2023-05-01T18:35:39.061Z,100692.44
2023-05-01T18:38:14.093Z,100682.53
2023-05-01T18:40:56.108Z,100684.13
2023-05-01T18:43:39.677Z,100684.13
2023-05-01T18:46:18.871Z,100693.44
2023-05-01T18:48:53.236Z,100686.97
2023-05-01T18:51:38.089Z,100693.22
2023-05-01T18:54:12.591Z,100694.34
2023-05-01T18:56:49.701Z,100694.00
2023-05-01T18:59:25.271Z,100701.38
2023-05-01T19:02:03.153Z,100707.03
2023-05-01T19:04:56.628Z,100701.75
2023-05-01T19:07:37.779Z,100715.97
2023-05-01T19:10:15.217Z,100708.47
2023-05-01T19:12:54.400Z,100712.09
2023-05-01T19:15:31.630Z,100712.00
2023-05-01T19:18:07.151Z,100718.91
2023-05-01T19:20:45.095Z,100719.25
2023-05-01T19:23:18.671Z,100713.31
2023-05-01T19:26:03.411Z,100706.13
2023-05-01T19:28:43.331Z,100706.94
2023-05-01T19:31:22.348Z,100698.72
2023-05-01T19:34:08.640Z,100709.16
2023-05-01T19:36:43.387Z,100716.19
2023-05-01T19:39:17.137Z,100722.53
2023-05-01T19:41:54.584Z,100727.06
2023-05-01T19:44:35.807Z,100720.66
2023-05-01T19:47:09.476Z,100709.72
2023-05-01T19:49:48.979Z,100715.75
2023-05-01T19:52:25.469Z,100714.84
2023-05-01T19:54:59.545Z,100719.94
2023-05-01T19:57:43.190Z,100692.50
2023-05-01T20:00:25.236Z,100709.91
2023-05-01T20:03:02.341Z,100718.63
2023-05-01T20:05:57.169Z,100708.03
2023-05-01T20:08:37.474Z,100697.22
2023-05-01T20:11:10.801Z,100716.44
2023-05-01T20:13:42.611Z,100727.66
2023-05-01T20:16:18.948Z,100715.19
2023-05-01T20:18:51.301Z,100711.03
2023-05-01T20:21:33.186Z,100667.16
2023-05-01T20:24:14.309Z,100683.59
2023-05-01T20:26:47.570Z,100711.19
2023-05-01T20:29:20.631Z,100708.47
2023-05-01T20:31:56.574Z,100715.34
2023-05-01T20:34:28.285Z,100712.44
2023-05-01T20:37:09.462Z,100714.69
2023-05-01T20:39:49.624Z,100694.44
2023-05-01T20:42:20.849Z,100723.66
2023-05-01T20:44:53.203Z,100719.00
2023-05-01T20:47:29.260Z,100715.72
2023-05-01T20:50:08.275Z,100717.16
2023-05-01T20:52:51.728Z,100712.38
2023-05-01T20:55:24.196Z,100706.66
2023-05-01T20:57:59.558Z,100670.50
2023-05-01T21:00:35.761Z,100699.22
2023-05-01T21:03:13.170Z,100712.78
2023-05-01T21:05:56.812Z,100713.13
2023-05-01T21:08:36.109Z,100677.53
2023-05-01T21:11:14.579Z,100708.84
2023-05-01T21:13:48.968Z,100706.44
2023-05-01T21:16:34.939Z,100697.81
2023-05-01T21:19:09.073Z,100709.53
2023-05-01T21:21:48.069Z,100716.09
2023-05-01T21:24:35.178Z,100703.03
2023-05-01T21:27:13.911Z,100679.09
2023-05-01T21:29:46.860Z,100711.53
2023-05-01T21:32:26.751Z,100704.97
2023-05-01T21:35:03.917Z,100708.50
2023-05-01T21:37:46.948Z,100711.22
2023-05-01T21:40:23.414Z,100707.38
2023-05-01T21:43:02.956Z,100709.47
2023-05-01T21:45:43.304Z,100710.56
2023-05-01T21:48:29.342Z,100707.72
2023-05-01T21:51:03.470Z,100717.63
2023-05-01T21:53:48.055Z,100701.50
2023-05-01T21:56:38.573Z,100717.16
2023-05-01T21:59:16.184Z,100717.97
2023-05-01T22:02:05.670Z,100710.16
2023-05-01T22:04:55.032Z,100728.69
2023-05-01T22:07:35.131Z,100730.31
2023-05-01T22:10:17.150Z,100730.00
2023-05-01T22:13:00.597Z,100720.88
2023-05-01T22:15:35.033Z,100727.44
2023-05-01T22:18:14.740Z,100726.16
2023-05-01T22:21:03.831Z,100719.59
2023-05-01T22:23:43.758Z,100727.31
2023-05-01T22:26:21.562Z,100716.75
2023-05-01T22:29:01.695Z,100732.41
2023-05-01T22:31:39.572Z,100727.31
2023-05-01T22:34:25.038Z,100725.22
2023-05-01T22:37:03.402Z,100719.63
2023-05-01T22:39:50.808Z,100727.63
2023-05-01T22:42:26.022Z,100728.41
2023-05-01T22:45:11.842Z,100721.38
2023-05-01T22:47:48.211Z,100714.69
2023-05-01T22:50:26.265Z,100725.72
2023-05-01T22:53:04.122Z,100719.97
2023-05-01T22:55:43.540Z,100725.41
2023-05-01T22:58:28.692Z,100711.97
2023-05-01T23:01:09.580Z,100726.81
2023-05-01T23:03:48.127Z,100725.72
2023-05-01T23:06:24.917Z,100720.28
2023-05-01T23:09:01.781Z,100713.72
2023-05-01T23:11:40.431Z,100720.13
2023-05-01T23:14:31.459Z,100716.91
2023-05-01T23:17:11.541Z,100715.34
2023-05-01T23:20:02.243Z,100715.66
2023-05-01T23:22:39.128Z,100715.94
2023-05-01T23:25:28.450Z,100720.13
2023-05-01T23:28:12.578Z,100718.84
2023-05-01T23:30:54.491Z,100718.38
2023-05-01T23:33:33.123Z,100721.38
2023-05-01T23:36:13.856Z,100717.09
2023-05-01T23:38:52.529Z,100714.69
2023-05-01T23:41:36.002Z,100707.03
2023-05-01T23:44:13.960Z,100717.91
2023-05-01T23:46:49.938Z,100703.81
2023-05-01T23:49:29.051Z,100711.31
2023-05-01T23:52:08.306Z,100712.47
2023-05-01T23:54:44.277Z,100715.50
2023-05-01T23:57:20.121Z,100701.88
2023-05-01T23:59:55.858Z,100695.94
